createdAt,value
2022-11-18T00:03:21.915Z,3.6
2022-11-18T00:09:01.443Z,0
2022-11-18T00:14:32.127Z,3.6
2022-11-18T00:20:13.367Z,7.2
2022-11-18T00:25:48.190Z,3.6
2022-11-18T00:31:02.010Z,0
2022-11-18T00:36:49.735Z,0
2022-11-18T00:42:20.552Z,0
2022-11-18T00:47:50.684Z,0
2022-11-18T00:53:17.074Z,0
2022-11-18T00:58:46.313Z,0
2022-11-18T01:04:21.306Z,0
2022-11-18T01:10:05.335Z,0
2022-11-18T01:15:40.173Z,0
2022-11-18T01:20:49.401Z,3.6
2022-11-18T01:26:27.953Z,7.2
2022-11-18T01:32:27.005Z,9.6
2022-11-18T01:37:28.508Z,13.2
2022-11-18T01:42:56.948Z,8.4
2022-11-18T01:48:35.870Z,9.6
2022-11-18T01:54:05.600Z,5.9
2022-11-18T01:59:58.430Z,5.9
2022-11-18T02:05:12.873Z,9.6
2022-11-18T02:10:58.274Z,7.2
2022-11-18T02:16:27.146Z,8.4
2022-11-18T02:21:50.797Z,9.6
2022-11-18T02:27:32.223Z,8.4
2022-11-18T02:33:04.156Z,9.6
2022-11-18T02:38:55.254Z,5.9
2022-11-18T02:44:17.525Z,4.8
2022-11-18T02:49:57.872Z,4.8
2022-11-18T02:55:33.780Z,4.8
2022-11-18T03:00:58.153Z,5.9
2022-11-18T03:06:25.356Z,3.6
2022-11-18T03:12:02.829Z,2.4
2022-11-18T03:17:49.223Z,0
2022-11-18T03:23:13.576Z,2.4
2022-11-18T03:28:45.419Z,0
2022-11-18T03:34:14.176Z,4.8
2022-11-18T03:39:58.766Z,0
2022-11-18T03:45:03.296Z,0
2022-11-18T03:50:38.776Z,3.6
2022-11-18T03:56:36.380Z,4.8
2022-11-18T04:01:54.324Z,5.9
2022-11-18T04:07:24.524Z,3.6
2022-11-18T04:12:48.919Z,4.8
2022-11-18T04:18:37.095Z,5.9
2022-11-18T04:23:58.510Z,5.9
2022-11-18T04:29:56.238Z,4.8
2022-11-18T04:35:18.835Z,3.6
2022-11-18T04:40:42.582Z,7.2
2022-11-18T04:46:35.512Z,4.8
2022-11-18T04:51:48.220Z,0
2022-11-18T04:57:29.104Z,2.4
2022-11-18T05:02:47.805Z,0
2022-11-18T05:08:17.640Z,3.6
2022-11-18T05:14:09.826Z,2.4
2022-11-18T05:19:28.576Z,0
2022-11-18T05:25:13.831Z,2.4
2022-11-18T05:30:36.958Z,0
2022-11-18T05:36:22.677Z,0
2022-11-18T05:41:36.731Z,0
2022-11-18T05:47:19.755Z,3.6
2022-11-18T05:52:39.296Z,5.9
2022-11-18T05:58:19.273Z,3.6
2022-11-18T06:03:59.925Z,3.6
2022-11-18T06:09:34.477Z,0
2022-11-18T06:15:15.586Z,0
2022-11-18T06:20:33.368Z,0
2022-11-18T06:26:19.675Z,0
2022-11-18T06:31:32.320Z,2.4
2022-11-18T06:37:27.545Z,2.4
2022-11-18T06:42:32.417Z,2.4
2022-11-18T06:48:05.982Z,3.6
2022-11-18T06:54:09.173Z,3.6
2022-11-18T06:59:11.030Z,5.9
2022-11-18T07:04:57.405Z,4.8
2022-11-18T07:10:27.405Z,4.8
2022-11-18T07:15:53.747Z,5.9
2022-11-18T07:21:43.715Z,5.9
2022-11-18T07:27:15.758Z,5.9
2022-11-18T07:32:31.154Z,5.9
2022-11-18T07:38:04.493Z,4.8
2022-11-18T07:43:55.010Z,5.9
2022-11-18T07:49:06.877Z,5.9
2022-11-18T07:54:40.361Z,5.9
2022-11-18T08:00:35.581Z,7.2
2022-11-18T08:05:58.115Z,5.9
2022-11-18T08:11:29.468Z,5.9
2022-11-18T08:16:54.813Z,4.8
2022-11-18T08:22:25.820Z,5.9
2022-11-18T08:28:00.803Z,8.4
2022-11-18T08:33:46.236Z,4.8
2022-11-18T08:39:09.322Z,4.8
2022-11-18T08:44:55.651Z,2.4
2022-11-18T08:50:35.252Z,3.6
2022-11-18T08:56:11.678Z,7.2
2022-11-18T09:01:25.785Z,4.8
2022-11-18T09:07:02.316Z,5.9
2022-11-18T09:12:36.683Z,9.6
2022-11-18T09:18:06.733Z,10.7
2022-11-18T09:23:43.116Z,9.6
2022-11-18T09:29:33.139Z,10.7
2022-11-18T09:34:39.162Z,7.2
2022-11-18T09:40:20.730Z,9.6
2022-11-18T09:46:09.575Z,8.4
2022-11-18T09:51:21.100Z,7.2
2022-11-18T09:57:12.421Z,4.8
2022-11-18T10:02:50.267Z,3.6
2022-11-18T10:08:17.118Z,7.2
2022-11-18T10:13:39.402Z,7.2
2022-11-18T10:19:21.844Z,7.2
2022-11-18T10:24:57.330Z,8.4
2022-11-18T10:30:20.277Z,7.2
2022-11-18T10:35:53.173Z,7.2
2022-11-18T10:41:22.859Z,9.6
2022-11-18T10:47:10.111Z,13.2
2022-11-18T10:52:41.923Z,9.6
2022-11-18T10:58:21.530Z,7.2
2022-11-18T11:03:38.258Z,5.9
2022-11-18T11:09:24.539Z,5.9
2022-11-18T11:14:39.076Z,7.2
2022-11-18T11:20:30.743Z,5.9
2022-11-18T11:31:35.455Z,7.2
2022-11-18T11:37:07.400Z,8.4
2022-11-18T11:42:37.396Z,7.2
2022-11-18T11:47:59.298Z,7.2
2022-11-18T11:53:47.404Z,4.8
2022-11-18T11:59:22.841Z,4.8
2022-11-18T12:04:39.938Z,4.8
2022-11-18T12:10:37.598Z,4.8
2022-11-18T12:15:44.316Z,7.2
2022-11-18T12:21:19.144Z,8.4
2022-11-18T12:27:12.559Z,9.6
2022-11-18T12:32:50.233Z,5.9
2022-11-18T12:38:11.698Z,8.4
2022-11-18T12:43:46.881Z,9.6
2022-11-18T12:49:29.417Z,7.2
2022-11-18T12:54:49.270Z,7.2
2022-11-18T13:00:14.917Z,7.2
2022-11-18T13:06:04.805Z,4.8
2022-11-18T13:11:35.315Z,7.2
2022-11-18T13:16:58.617Z,7.2
2022-11-18T13:22:50.757Z,7.2
2022-11-18T13:28:16.964Z,8.4
2022-11-18T13:33:52.940Z,11.9
2022-11-18T13:39:08.867Z,8.4
2022-11-18T13:44:38.906Z,9.6
2022-11-18T13:50:15.514Z,9.6
2022-11-18T13:56:00.691Z,9.6
2022-11-18T14:01:41.131Z,10.7
2022-11-18T14:07:15.687Z,9.6
2022-11-18T14:12:27.947Z,7.2
2022-11-18T14:18:13.868Z,8.4
2022-11-18T14:23:56.343Z,7.2
2022-11-18T14:29:08.333Z,10.7
2022-11-18T14:34:56.840Z,7.2
2022-11-18T14:40:15.339Z,5.9
2022-11-18T14:46:11.681Z,4.8
2022-11-18T14:51:31.634Z,4.8
2022-11-18T14:57:09.321Z,4.8
2022-11-18T15:02:53.179Z,3.6
2022-11-18T15:08:06.401Z,5.9
2022-11-18T15:13:54.340Z,7.2
2022-11-18T15:19:23.835Z,5.9
2022-11-18T15:24:42.629Z,3.6
2022-11-18T15:30:23.332Z,5.9
2022-11-18T15:35:48.586Z,4.8
2022-11-18T15:41:40.912Z,4.8
2022-11-18T15:47:19.326Z,3.6
2022-11-18T15:52:35.358Z,3.6
2022-11-18T15:57:58.620Z,4.8
2022-11-18T16:03:29.359Z,5.9
2022-11-18T16:09:30.636Z,4.8
2022-11-18T16:15:02.051Z,3.6
2022-11-18T16:20:16.551Z,0
2022-11-18T16:25:50.924Z,0
2022-11-18T16:31:15.523Z,0
2022-11-18T16:36:52.869Z,0
2022-11-18T16:42:33.332Z,0
2022-11-18T16:48:18.026Z,0
2022-11-18T16:53:23.190Z,0
2022-11-18T16:59:08.206Z,0
2022-11-18T17:04:36.355Z,0
2022-11-18T17:10:19.971Z,0
2022-11-18T17:15:56.273Z,0
2022-11-18T17:21:24.063Z,0
2022-11-18T17:26:39.128Z,0
2022-11-18T17:32:35.005Z,2.4
2022-11-18T17:38:01.594Z,3.6
2022-11-18T17:43:24.642Z,0
2022-11-18T17:49:08.574Z,0
2022-11-18T17:54:22.013Z,0
2022-11-18T17:59:58.401Z,0
2022-11-18T18:05:39.972Z,0
2022-11-18T18:11:13.346Z,0
2022-11-18T18:16:44.668Z,0
2022-11-18T18:22:24.647Z,0
2022-11-18T18:27:42.897Z,0
2022-11-18T18:33:34.441Z,0
2022-11-18T18:38:49.632Z,0
2022-11-18T18:44:37.722Z,0
2022-11-18T18:49:59.041Z,0
2022-11-18T18:55:27.941Z,0
2022-11-18T19:01:07.716Z,0
2022-11-18T19:06:59.640Z,0
2022-11-18T19:12:18.979Z,0
2022-11-18T19:17:47.042Z,0
2022-11-18T19:23:20.784Z,0
2022-11-18T19:28:57.043Z,0
2022-11-18T19:34:01.302Z,0
2022-11-18T19:39:42.979Z,0
2022-11-18T19:45:21.918Z,0
2022-11-18T19:51:01.945Z,0
2022-11-18T19:56:21.473Z,0
2022-11-18T20:01:41.985Z,0
2022-11-18T20:07:27.425Z,0
2022-11-18T20:13:05.901Z,0
2022-11-18T20:18:20.354Z,0
2022-11-18T20:23:54.484Z,0
2022-11-18T20:29:23.769Z,0
2022-11-18T20:35:17.424Z,0
2022-11-18T20:40:43.280Z,0
2022-11-18T20:46:06.531Z,0
2022-11-18T20:51:37.355Z,0
2022-11-18T20:57:22.033Z,0
2022-11-18T21:03:00.321Z,0
2022-11-18T21:08:18.669Z,0
2022-11-18T21:13:49.833Z,0
2022-11-18T21:19:29.662Z,0
2022-11-18T21:25:02.848Z,0
2022-11-18T21:30:32.715Z,0
2022-11-18T21:35:59.572Z,0
2022-11-18T21:41:27.576Z,0
2022-11-18T21:47:21.733Z,0
2022-11-18T21:52:43.789Z,0
2022-11-18T21:58:13.102Z,0
2022-11-18T22:03:55.659Z,0
2022-11-18T22:09:21.074Z,0
2022-11-18T22:14:34.621Z,0
2022-11-18T22:20:14.134Z,0
2022-11-18T22:25:42.679Z,0
2022-11-18T22:31:22.556Z,0
2022-11-18T22:36:52.561Z,0
2022-11-18T22:42:29.258Z,0
2022-11-18T22:47:58.405Z,0
2022-11-18T22:53:24.749Z,0
2022-11-18T22:58:52.430Z,0
2022-11-18T23:04:46.513Z,0
2022-11-18T23:10:00.643Z,0
2022-11-18T23:15:35.816Z,0
2022-11-18T23:21:08.813Z,0
2022-11-18T23:26:46.309Z,0
2022-11-18T23:32:16.704Z,0
2022-11-18T23:37:35.983Z,0
2022-11-18T23:43:14.130Z,0
2022-11-18T23:48:49.422Z,0
2022-11-18T23:54:16.893Z,0
2022-11-18T23:59:57.383Z,0
